sensor_id;sensor_type;location;lat;lon;timestamp;temperature;humidity
2162;DHT22;1087;50.226;8.682;2022-11-15T00:00:50;10.40;99.90
2162;DHT22;1087;50.226;8.682;2022-11-15T00:03:16;10.40;99.90
2162;DHT22;1087;50.226;8.682;2022-11-15T00:05:42;10.40;99.90
2162;DHT22;1087;50.226;8.682;2022-11-15T00:08:08;10.40;99.90
2162;DHT22;1087;50.226;8.682;2022-11-15T00:10:34;10.40;99.90
2162;DHT22;1087;50.226;8.682;2022-11-15T00:13:04;10.30;99.90
2162;DHT22;1087;50.226;8.682;2022-11-15T00:15:30;10.40;99.90
2162;DHT22;1087;50.226;8.682;2022-11-15T00:17:55;10.30;99.90
2162;DHT22;1087;50.226;8.682;2022-11-15T00:20:21;10.30;99.90
2162;DHT22;1087;50.226;8.682;2022-11-15T00:22:46;10.30;99.90
2162;DHT22;1087;50.226;8.682;2022-11-15T00:25:12;10.30;99.90
2162;DHT22;1087;50.226;8.682;2022-11-15T00:27:37;10.30;99.90
2162;DHT22;1087;50.226;8.682;2022-11-15T00:30:03;10.30;99.90
2162;DHT22;1087;50.226;8.682;2022-11-15T00:32:32;10.50;99.90
2162;DHT22;1087;50.226;8.682;2022-11-15T00:34:58;10.40;99.90
2162;DHT22;1087;50.226;8.682;2022-11-15T00:37:23;10.40;99.90
2162;DHT22;1087;50.226;8.682;2022-11-15T00:39:49;10.30;99.90
2162;DHT22;1087;50.226;8.682;2022-11-15T00:42:14;10.30;99.90
2162;DHT22;1087;50.226;8.682;2022-11-15T00:44:40;10.30;99.90
2162;DHT22;1087;50.226;8.682;2022-11-15T00:47:05;10.30;99.90
2162;DHT22;1087;50.226;8.682;2022-11-15T00:49:31;10.30;99.90
2162;DHT22;1087;50.226;8.682;2022-11-15T00:51:56;10.30;99.90
2162;DHT22;1087;50.226;8.682;2022-11-15T00:54:22;10.30;99.90
2162;DHT22;1087;50.226;8.682;2022-11-15T00:56:47;10.30;99.90
2162;DHT22;1087;50.226;8.682;2022-11-15T00:59:13;10.30;99.90
2162;DHT22;1087;50.226;8.682;2022-11-15T01:01:38;10.30;99.90
2162;DHT22;1087;50.226;8.682;2022-11-15T01:04:04;10.30;99.90
2162;DHT22;1087;50.226;8.682;2022-11-15T01:06:29;10.20;99.90
2162;DHT22;1087;50.226;8.682;2022-11-15T01:08:55;10.20;99.90
2162;DHT22;1087;50.226;8.682;2022-11-15T01:11:20;10.20;99.90
2162;DHT22;1087;50.226;8.682;2022-11-15T01:13:46;10.20;99.90
2162;DHT22;1087;50.226;8.682;2022-11-15T01:16:16;10.10;99.90
2162;DHT22;1087;50.226;8.682;2022-11-15T01:18:44;10.10;99.90
2162;DHT22;1087;50.226;8.682;2022-11-15T01:21:12;10.10;99.90
2162;DHT22;1087;50.226;8.682;2022-11-15T01:23:39;10.10;99.90
2162;DHT22;1087;50.226;8.682;2022-11-15T01:26:07;10.10;99.90
2162;DHT22;1087;50.226;8.682;2022-11-15T01:28:34;10.10;99.90
2162;DHT22;1087;50.226;8.682;2022-11-15T01:31:01;10.10;99.90
2162;DHT22;1087;50.226;8.682;2022-11-15T01:33:28;10.10;99.90
2162;DHT22;1087;50.226;8.682;2022-11-15T01:35:54;10.20;99.90
2162;DHT22;1087;50.226;8.682;2022-11-15T01:38:19;10.20;99.90
2162;DHT22;1087;50.226;8.682;2022-11-15T01:40:45;10.20;99.90
2162;DHT22;1087;50.226;8.682;2022-11-15T01:43:28;10.10;99.90
2162;DHT22;1087;50.226;8.682;2022-11-15T01:46:01;10.10;99.90
2162;DHT22;1087;50.226;8.682;2022-11-15T01:48:32;10.10;99.90
2162;DHT22;1087;50.226;8.682;2022-11-15T01:51:00;10.10;99.90
2162;DHT22;1087;50.226;8.682;2022-11-15T01:53:27;10.10;99.90
2162;DHT22;1087;50.226;8.682;2022-11-15T01:55:54;10.10;99.90
2162;DHT22;1087;50.226;8.682;2022-11-15T01:58:20;10.10;99.90
2162;DHT22;1087;50.226;8.682;2022-11-15T02:00:46;10.10;99.90
2162;DHT22;1087;50.226;8.682;2022-11-15T02:03:13;10.10;99.90
2162;DHT22;1087;50.226;8.682;2022-11-15T02:05:39;10.10;99.90
2162;DHT22;1087;50.226;8.682;2022-11-15T02:08:06;10.10;99.90
2162;DHT22;1087;50.226;8.682;2022-11-15T02:10:33;10.10;99.90
2162;DHT22;1087;50.226;8.682;2022-11-15T02:12:59;10.10;99.90
2162;DHT22;1087;50.226;8.682;2022-11-15T02:15:32;10.10;99.90
2162;DHT22;1087;50.226;8.682;2022-11-15T02:18:15;10.10;99.90
2162;DHT22;1087;50.226;8.682;2022-11-15T03:27:26;10.20;99.90
2162;DHT22;1087;50.226;8.682;2022-11-15T03:29:58;10.30;99.90
2162;DHT22;1087;50.226;8.682;2022-11-15T03:32:28;10.30;99.90
2162;DHT22;1087;50.226;8.682;2022-11-15T03:40:16;10.30;99.90
2162;DHT22;1087;50.226;8.682;2022-11-15T03:43:01;10.30;99.90
2162;DHT22;1087;50.226;8.682;2022-11-15T03:45:32;10.40;99.90
2162;DHT22;1087;50.226;8.682;2022-11-15T03:48:16;10.40;99.90
2162;DHT22;1087;50.226;8.682;2022-11-15T03:50:43;10.40;99.90
2162;DHT22;1087;50.226;8.682;2022-11-15T03:53:10;10.40;99.90
2162;DHT22;1087;50.226;8.682;2022-11-15T03:55:36;10.40;99.90
2162;DHT22;1087;50.226;8.682;2022-11-15T03:58:02;10.40;99.90
2162;DHT22;1087;50.226;8.682;2022-11-15T04:00:28;10.40;99.90
2162;DHT22;1087;50.226;8.682;2022-11-15T04:02:54;10.40;99.90
2162;DHT22;1087;50.226;8.682;2022-11-15T04:05:20;10.40;99.90
2162;DHT22;1087;50.226;8.682;2022-11-15T04:07:45;10.40;99.90
2162;DHT22;1087;50.226;8.682;2022-11-15T04:10:11;10.50;99.90
2162;DHT22;1087;50.226;8.682;2022-11-15T04:12:40;10.50;99.90
2162;DHT22;1087;50.226;8.682;2022-11-15T04:15:12;10.50;99.90
2162;DHT22;1087;50.226;8.682;2022-11-15T04:17:43;10.50;99.90
2162;DHT22;1087;50.226;8.682;2022-11-15T04:23:04;10.50;99.90
2162;DHT22;1087;50.226;8.682;2022-11-15T04:25:51;10.50;99.90
2162;DHT22;1087;50.226;8.682;2022-11-15T04:28:17;10.50;99.90
2162;DHT22;1087;50.226;8.682;2022-11-15T04:30:43;10.50;99.90
2162;DHT22;1087;50.226;8.682;2022-11-15T04:33:08;10.50;99.90
2162;DHT22;1087;50.226;8.682;2022-11-15T04:35:34;10.50;99.90
2162;DHT22;1087;50.226;8.682;2022-11-15T04:38:01;10.50;99.90
2162;DHT22;1087;50.226;8.682;2022-11-15T04:40:26;10.50;99.90
2162;DHT22;1087;50.226;8.682;2022-11-15T04:42:52;10.50;99.90
2162;DHT22;1087;50.226;8.682;2022-11-15T04:45:18;10.50;99.90
2162;DHT22;1087;50.226;8.682;2022-11-15T04:47:44;10.50;99.90
2162;DHT22;1087;50.226;8.682;2022-11-15T04:50:11;10.50;99.90
2162;DHT22;1087;50.226;8.682;2022-11-15T04:52:48;10.50;99.90
2162;DHT22;1087;50.226;8.682;2022-11-15T04:55:15;10.50;99.90
2162;DHT22;1087;50.226;8.682;2022-11-15T04:57:40;10.50;99.90
2162;DHT22;1087;50.226;8.682;2022-11-15T05:00:09;10.50;99.90
2162;DHT22;1087;50.226;8.682;2022-11-15T05:02:35;10.50;99.90
2162;DHT22;1087;50.226;8.682;2022-11-15T05:05:19;10.50;99.90
2162;DHT22;1087;50.226;8.682;2022-11-15T05:07:45;10.50;99.90
2162;DHT22;1087;50.226;8.682;2022-11-15T05:10:11;10.50;99.90
2162;DHT22;1087;50.226;8.682;2022-11-15T05:12:37;10.50;99.90
2162;DHT22;1087;50.226;8.682;2022-11-15T05:15:02;10.50;99.90
2162;DHT22;1087;50.226;8.682;2022-11-15T05:17:28;10.50;99.90
2162;DHT22;1087;50.226;8.682;2022-11-15T05:19:54;10.50;99.90
2162;DHT22;1087;50.226;8.682;2022-11-15T05:22:20;10.50;99.90
2162;DHT22;1087;50.226;8.682;2022-11-15T05:24:45;10.60;99.90
2162;DHT22;1087;50.226;8.682;2022-11-15T05:27:11;10.60;99.90
2162;DHT22;1087;50.226;8.682;2022-11-15T05:29:37;10.60;99.90
2162;DHT22;1087;50.226;8.682;2022-11-15T05:32:04;10.60;99.90
2162;DHT22;1087;50.226;8.682;2022-11-15T05:34:30;10.60;99.90
2162;DHT22;1087;50.226;8.682;2022-11-15T05:36:56;10.50;99.90
2162;DHT22;1087;50.226;8.682;2022-11-15T05:39:22;10.50;99.90
2162;DHT22;1087;50.226;8.682;2022-11-15T05:41:51;10.60;99.90
2162;DHT22;1087;50.226;8.682;2022-11-15T05:44:20;10.60;99.90
2162;DHT22;1087;50.226;8.682;2022-11-15T05:46:47;10.60;99.90
2162;DHT22;1087;50.226;8.682;2022-11-15T05:49:15;10.60;99.90
2162;DHT22;1087;50.226;8.682;2022-11-15T05:51:44;10.60;99.90
2162;DHT22;1087;50.226;8.682;2022-11-15T05:54:12;10.60;99.90
2162;DHT22;1087;50.226;8.682;2022-11-15T05:56:38;10.60;99.90
2162;DHT22;1087;50.226;8.682;2022-11-15T05:59:04;10.60;99.90
2162;DHT22;1087;50.226;8.682;2022-11-15T06:01:31;10.60;99.90
2162;DHT22;1087;50.226;8.682;2022-11-15T06:03:56;10.50;99.90
2162;DHT22;1087;50.226;8.682;2022-11-15T06:06:22;10.50;99.90
2162;DHT22;1087;50.226;8.682;2022-11-15T06:08:47;10.50;99.90
2162;DHT22;1087;50.226;8.682;2022-11-15T06:11:13;10.50;99.90
2162;DHT22;1087;50.226;8.682;2022-11-15T06:13:39;10.50;99.90
2162;DHT22;1087;50.226;8.682;2022-11-15T06:16:05;10.50;99.90
2162;DHT22;1087;50.226;8.682;2022-11-15T06:18:35;10.50;99.90
2162;DHT22;1087;50.226;8.682;2022-11-15T06:21:01;10.50;99.90
2162;DHT22;1087;50.226;8.682;2022-11-15T06:23:27;10.60;99.90
2162;DHT22;1087;50.226;8.682;2022-11-15T06:25:53;10.60;99.90
2162;DHT22;1087;50.226;8.682;2022-11-15T06:28:18;10.60;99.90
2162;DHT22;1087;50.226;8.682;2022-11-15T06:30:44;10.50;99.90
2162;DHT22;1087;50.226;8.682;2022-11-15T06:33:10;10.60;99.90
2162;DHT22;1087;50.226;8.682;2022-11-15T06:35:35;10.50;99.90
2162;DHT22;1087;50.226;8.682;2022-11-15T06:38:03;10.60;99.90
2162;DHT22;1087;50.226;8.682;2022-11-15T06:40:29;10.50;99.90
2162;DHT22;1087;50.226;8.682;2022-11-15T06:43:01;10.50;99.90
2162;DHT22;1087;50.226;8.682;2022-11-15T06:45:27;10.50;99.90
2162;DHT22;1087;50.226;8.682;2022-11-15T06:47:52;10.50;99.90
2162;DHT22;1087;50.226;8.682;2022-11-15T06:50:18;10.60;99.90
2162;DHT22;1087;50.226;8.682;2022-11-15T06:52:44;10.60;99.90
2162;DHT22;1087;50.226;8.682;2022-11-15T06:55:09;10.60;99.90
2162;DHT22;1087;50.226;8.682;2022-11-15T06:57:35;10.60;99.90
2162;DHT22;1087;50.226;8.682;2022-11-15T07:00:04;10.70;99.90
2162;DHT22;1087;50.226;8.682;2022-11-15T07:02:29;10.60;99.90
2162;DHT22;1087;50.226;8.682;2022-11-15T07:04:55;10.70;99.90
2162;DHT22;1087;50.226;8.682;2022-11-15T07:07:20;10.70;99.90
2162;DHT22;1087;50.226;8.682;2022-11-15T07:09:46;10.70;99.90
2162;DHT22;1087;50.226;8.682;2022-11-15T07:12:11;10.70;99.90
2162;DHT22;1087;50.226;8.682;2022-11-15T07:14:37;10.70;99.90
2162;DHT22;1087;50.226;8.682;2022-11-15T07:17:05;10.70;99.90
2162;DHT22;1087;50.226;8.682;2022-11-15T07:19:31;10.80;99.90
2162;DHT22;1087;50.226;8.682;2022-11-15T07:21:57;10.70;99.90
2162;DHT22;1087;50.226;8.682;2022-11-15T07:24:22;10.70;99.90
2162;DHT22;1087;50.226;8.682;2022-11-15T07:26:48;10.80;99.90
2162;DHT22;1087;50.226;8.682;2022-11-15T07:29:13;10.70;99.90
2162;DHT22;1087;50.226;8.682;2022-11-15T07:31:39;10.80;99.90
2162;DHT22;1087;50.226;8.682;2022-11-15T07:34:04;10.80;99.90
2162;DHT22;1087;50.226;8.682;2022-11-15T07:36:30;10.80;99.90
2162;DHT22;1087;50.226;8.682;2022-11-15T07:38:55;10.80;99.90
2162;DHT22;1087;50.226;8.682;2022-11-15T07:41:21;10.80;99.90
2162;DHT22;1087;50.226;8.682;2022-11-15T07:43:46;10.80;99.90
2162;DHT22;1087;50.226;8.682;2022-11-15T07:46:12;10.80;99.90
2162;DHT22;1087;50.226;8.682;2022-11-15T07:48:38;10.80;99.90
2162;DHT22;1087;50.226;8.682;2022-11-15T07:51:06;10.80;99.90
2162;DHT22;1087;50.226;8.682;2022-11-15T07:53:32;10.90;99.90
2162;DHT22;1087;50.226;8.682;2022-11-15T07:55:58;10.90;99.90
2162;DHT22;1087;50.226;8.682;2022-11-15T07:58:23;10.90;99.90
2162;DHT22;1087;50.226;8.682;2022-11-15T08:00:49;10.80;99.90
2162;DHT22;1087;50.226;8.682;2022-11-15T08:03:15;10.70;99.90
2162;DHT22;1087;50.226;8.682;2022-11-15T08:05:42;10.80;99.90
2162;DHT22;1087;50.226;8.682;2022-11-15T08:08:09;10.80;99.90
2162;DHT22;1087;50.226;8.682;2022-11-15T08:10:36;10.80;99.90
2162;DHT22;1087;50.226;8.682;2022-11-15T08:13:04;10.90;99.90
2162;DHT22;1087;50.226;8.682;2022-11-15T08:15:30;10.90;99.90
2162;DHT22;1087;50.226;8.682;2022-11-15T08:17:58;11.00;99.90
2162;DHT22;1087;50.226;8.682;2022-11-15T08:20:24;11.00;99.90
2162;DHT22;1087;50.226;8.682;2022-11-15T08:22:51;11.00;99.90
2162;DHT22;1087;50.226;8.682;2022-11-15T08:25:17;11.10;99.90
2162;DHT22;1087;50.226;8.682;2022-11-15T08:27:43;11.10;99.90
2162;DHT22;1087;50.226;8.682;2022-11-15T08:30:09;11.10;99.90
2162;DHT22;1087;50.226;8.682;2022-11-15T08:32:35;10.80;99.90
2162;DHT22;1087;50.226;8.682;2022-11-15T08:35:00;10.80;99.90
2162;DHT22;1087;50.226;8.682;2022-11-15T08:37:26;10.90;99.90
2162;DHT22;1087;50.226;8.682;2022-11-15T08:39:51;10.90;99.90
2162;DHT22;1087;50.226;8.682;2022-11-15T08:42:17;10.80;99.90
2162;DHT22;1087;50.226;8.682;2022-11-15T08:44:42;10.80;99.90
2162;DHT22;1087;50.226;8.682;2022-11-15T08:47:11;10.80;99.90
2162;DHT22;1087;50.226;8.682;2022-11-15T08:49:36;10.90;99.90
2162;DHT22;1087;50.226;8.682;2022-11-15T08:52:02;11.00;99.90
2162;DHT22;1087;50.226;8.682;2022-11-15T08:54:27;11.00;99.90
2162;DHT22;1087;50.226;8.682;2022-11-15T08:56:53;11.10;99.90
2162;DHT22;1087;50.226;8.682;2022-11-15T08:59:18;11.10;99.90
2162;DHT22;1087;50.226;8.682;2022-11-15T09:01:44;11.20;99.90
2162;DHT22;1087;50.226;8.682;2022-11-15T09:04:09;11.20;99.90
2162;DHT22;1087;50.226;8.682;2022-11-15T09:06:35;11.20;99.90
2162;DHT22;1087;50.226;8.682;2022-11-15T09:09:01;11.30;99.90
2162;DHT22;1087;50.226;8.682;2022-11-15T09:11:27;11.20;99.90
2162;DHT22;1087;50.226;8.682;2022-11-15T09:13:53;11.20;99.90
2162;DHT22;1087;50.226;8.682;2022-11-15T09:16:18;11.10;99.90
2162;DHT22;1087;50.226;8.682;2022-11-15T09:18:44;11.10;99.90
2162;DHT22;1087;50.226;8.682;2022-11-15T09:21:10;11.10;99.90
2162;DHT22;1087;50.226;8.682;2022-11-15T09:23:36;11.10;99.90
2162;DHT22;1087;50.226;8.682;2022-11-15T09:26:03;11.10;99.90
2162;DHT22;1087;50.226;8.682;2022-11-15T09:28:30;11.10;99.90
2162;DHT22;1087;50.226;8.682;2022-11-15T09:31:00;11.00;99.90
2162;DHT22;1087;50.226;8.682;2022-11-15T09:33:26;11.00;99.90
2162;DHT22;1087;50.226;8.682;2022-11-15T09:35:52;11.00;99.90
2162;DHT22;1087;50.226;8.682;2022-11-15T09:38:18;11.10;99.90
2162;DHT22;1087;50.226;8.682;2022-11-15T09:40:44;11.20;99.90
2162;DHT22;1087;50.226;8.682;2022-11-15T09:43:34;11.20;99.90
2162;DHT22;1087;50.226;8.682;2022-11-15T09:46:11;11.30;99.90
2162;DHT22;1087;50.226;8.682;2022-11-15T09:51:22;11.30;99.90
2162;DHT22;1087;50.226;8.682;2022-11-15T09:53:56;11.30;99.90
2162;DHT22;1087;50.226;8.682;2022-11-15T09:56:32;11.30;99.90
2162;DHT22;1087;50.226;8.682;2022-11-15T10:02:46;11.30;99.90
2162;DHT22;1087;50.226;8.682;2022-11-15T10:05:19;11.40;99.90
2162;DHT22;1087;50.226;8.682;2022-11-15T10:08:06;11.50;99.90
2162;DHT22;1087;50.226;8.682;2022-11-15T10:10:57;11.60;99.90
2162;DHT22;1087;50.226;8.682;2022-11-15T10:13:33;11.70;99.90
2162;DHT22;1087;50.226;8.682;2022-11-15T10:21:49;11.80;99.90
2162;DHT22;1087;50.226;8.682;2022-11-15T10:24:20;11.80;99.90
2162;DHT22;1087;50.226;8.682;2022-11-15T10:26:47;11.80;99.90
2162;DHT22;1087;50.226;8.682;2022-11-15T10:29:18;11.80;99.90
2162;DHT22;1087;50.226;8.682;2022-11-15T10:31:44;11.80;99.90
2162;DHT22;1087;50.226;8.682;2022-11-15T10:34:15;11.80;99.90
2162;DHT22;1087;50.226;8.682;2022-11-15T10:37:00;11.90;99.90
2162;DHT22;1087;50.226;8.682;2022-11-15T10:39:28;12.00;99.90
2162;DHT22;1087;50.226;8.682;2022-11-15T10:41:54;12.00;99.90
2162;DHT22;1087;50.226;8.682;2022-11-15T10:49:30;12.10;99.90
2162;DHT22;1087;50.226;8.682;2022-11-15T10:52:15;12.10;99.90
2162;DHT22;1087;50.226;8.682;2022-11-15T10:57:24;12.20;99.90
2162;DHT22;1087;50.226;8.682;2022-11-15T11:02:37;12.20;99.90
2162;DHT22;1087;50.226;8.682;2022-11-15T11:05:34;12.20;99.90
2162;DHT22;1087;50.226;8.682;2022-11-15T11:08:21;12.20;99.90
2162;DHT22;1087;50.226;8.682;2022-11-15T11:10:58;12.20;99.90
2162;DHT22;1087;50.226;8.682;2022-11-15T11:13:25;12.20;99.90
2162;DHT22;1087;50.226;8.682;2022-11-15T11:16:00;12.30;99.90
2162;DHT22;1087;50.226;8.682;2022-11-15T11:18:38;12.40;99.90
2162;DHT22;1087;50.226;8.682;2022-11-15T11:21:10;12.40;99.90
2162;DHT22;1087;50.226;8.682;2022-11-15T11:23:50;12.50;99.90
2162;DHT22;1087;50.226;8.682;2022-11-15T11:26:38;12.50;99.90
2162;DHT22;1087;50.226;8.682;2022-11-15T11:38:00;12.70;99.90
2162;DHT22;1087;50.226;8.682;2022-11-15T11:40:35;12.70;99.90
2162;DHT22;1087;50.226;8.682;2022-11-15T11:45:46;12.70;99.90
2162;DHT22;1087;50.226;8.682;2022-11-15T11:48:21;12.70;99.90
2162;DHT22;1087;50.226;8.682;2022-11-15T11:50:49;12.70;99.90
2162;DHT22;1087;50.226;8.682;2022-11-15T11:54:06;12.70;99.90
2162;DHT22;1087;50.226;8.682;2022-11-15T11:56:37;12.80;99.90
2162;DHT22;1087;50.226;8.682;2022-11-15T12:02:29;12.90;99.90
2162;DHT22;1087;50.226;8.682;2022-11-15T12:05:19;12.90;99.90
2162;DHT22;1087;50.226;8.682;2022-11-15T12:07:49;12.90;99.90
2162;DHT22;1087;50.226;8.682;2022-11-15T12:10:24;12.80;99.90
2162;DHT22;1087;50.226;8.682;2022-11-15T12:13:04;12.90;99.90
2162;DHT22;1087;50.226;8.682;2022-11-15T12:15:37;12.90;99.90
2162;DHT22;1087;50.226;8.682;2022-11-15T12:18:04;12.90;99.90
2162;DHT22;1087;50.226;8.682;2022-11-15T12:20:35;12.90;99.90
2162;DHT22;1087;50.226;8.682;2022-11-15T12:26:02;12.90;99.90
2162;DHT22;1087;50.226;8.682;2022-11-15T12:28:55;12.90;99.90
2162;DHT22;1087;50.226;8.682;2022-11-15T12:34:02;12.90;99.90
2162;DHT22;1087;50.226;8.682;2022-11-15T12:36:36;12.90;99.90
2162;DHT22;1087;50.226;8.682;2022-11-15T12:39:03;12.90;99.90
2162;DHT22;1087;50.226;8.682;2022-11-15T12:41:31;13.00;99.90
2162;DHT22;1087;50.226;8.682;2022-11-15T12:43:58;13.00;99.90
2162;DHT22;1087;50.226;8.682;2022-11-15T12:49:48;13.00;99.90
2162;DHT22;1087;50.226;8.682;2022-11-15T13:02:31;13.10;99.90
2162;DHT22;1087;50.226;8.682;2022-11-15T13:22:59;13.10;99.90
2162;DHT22;1087;50.226;8.682;2022-11-15T13:30:56;13.10;99.90
2162;DHT22;1087;50.226;8.682;2022-11-15T13:33:36;13.10;99.90
2162;DHT22;1087;50.226;8.682;2022-11-15T13:36:06;13.10;99.90
2162;DHT22;1087;50.226;8.682;2022-11-15T13:38:38;13.10;99.90
2162;DHT22;1087;50.226;8.682;2022-11-15T13:41:32;13.10;99.90
2162;DHT22;1087;50.226;8.682;2022-11-15T13:43:59;13.10;99.90
2162;DHT22;1087;50.226;8.682;2022-11-15T13:46:29;13.10;99.90
2162;DHT22;1087;50.226;8.682;2022-11-15T13:49:04;13.20;99.90
2162;DHT22;1087;50.226;8.682;2022-11-15T13:51:37;13.20;99.90
2162;DHT22;1087;50.226;8.682;2022-11-15T13:56:40;13.10;99.90
2162;DHT22;1087;50.226;8.682;2022-11-15T13:59:24;13.10;99.90
2162;DHT22;1087;50.226;8.682;2022-11-15T14:01:50;13.10;99.90
2162;DHT22;1087;50.226;8.682;2022-11-15T14:04:20;13.10;99.90
2162;DHT22;1087;50.226;8.682;2022-11-15T14:06:49;13.00;99.90
2162;DHT22;1087;50.226;8.682;2022-11-15T14:11:52;13.10;99.90
2162;DHT22;1087;50.226;8.682;2022-11-15T14:14:21;13.00;99.90
2162;DHT22;1087;50.226;8.682;2022-11-15T14:16:50;13.00;99.90
2162;DHT22;1087;50.226;8.682;2022-11-15T14:22:13;13.00;99.90
2162;DHT22;1087;50.226;8.682;2022-11-15T14:24:40;13.00;99.90
2162;DHT22;1087;50.226;8.682;2022-11-15T14:29:41;12.90;99.90
2162;DHT22;1087;50.226;8.682;2022-11-15T14:32:18;13.00;99.90
2162;DHT22;1087;50.226;8.682;2022-11-15T14:34:45;13.00;99.90
2162;DHT22;1087;50.226;8.682;2022-11-15T14:37:21;13.00;99.90
2162;DHT22;1087;50.226;8.682;2022-11-15T14:39:47;13.00;99.90
2162;DHT22;1087;50.226;8.682;2022-11-15T14:42:13;13.00;99.90
2162;DHT22;1087;50.226;8.682;2022-11-15T14:44:38;13.00;99.90
2162;DHT22;1087;50.226;8.682;2022-11-15T14:47:04;12.90;99.90
2162;DHT22;1087;50.226;8.682;2022-11-15T14:49:29;13.00;99.90
2162;DHT22;1087;50.226;8.682;2022-11-15T14:51:55;13.00;99.90
2162;DHT22;1087;50.226;8.682;2022-11-15T14:54:20;13.00;99.90
2162;DHT22;1087;50.226;8.682;2022-11-15T14:56:46;13.10;99.90
2162;DHT22;1087;50.226;8.682;2022-11-15T14:59:11;13.00;99.90
2162;DHT22;1087;50.226;8.682;2022-11-15T15:01:37;13.00;99.90
2162;DHT22;1087;50.226;8.682;2022-11-15T15:04:02;13.10;99.90
2162;DHT22;1087;50.226;8.682;2022-11-15T15:06:28;13.10;99.90
2162;DHT22;1087;50.226;8.682;2022-11-15T15:08:54;13.10;99.90
2162;DHT22;1087;50.226;8.682;2022-11-15T15:11:25;13.10;99.90
2162;DHT22;1087;50.226;8.682;2022-11-15T15:13:51;13.10;99.90
2162;DHT22;1087;50.226;8.682;2022-11-15T15:16:18;13.10;99.90
2162;DHT22;1087;50.226;8.682;2022-11-15T15:18:43;13.10;99.90
2162;DHT22;1087;50.226;8.682;2022-11-15T15:21:28;13.10;99.90
2162;DHT22;1087;50.226;8.682;2022-11-15T15:23:54;13.10;99.90
2162;DHT22;1087;50.226;8.682;2022-11-15T15:26:20;13.20;99.90
2162;DHT22;1087;50.226;8.682;2022-11-15T15:28:46;13.20;99.90
2162;DHT22;1087;50.226;8.682;2022-11-15T15:31:13;13.20;99.90
2162;DHT22;1087;50.226;8.682;2022-11-15T15:33:39;13.10;99.90
2162;DHT22;1087;50.226;8.682;2022-11-15T15:36:05;13.00;99.90
2162;DHT22;1087;50.226;8.682;2022-11-15T15:38:30;13.00;99.90
2162;DHT22;1087;50.226;8.682;2022-11-15T15:40:56;13.00;99.90
2162;DHT22;1087;50.226;8.682;2022-11-15T15:43:21;13.00;99.90
2162;DHT22;1087;50.226;8.682;2022-11-15T15:45:47;13.10;99.90
2162;DHT22;1087;50.226;8.682;2022-11-15T15:48:14;13.10;99.90
2162;DHT22;1087;50.226;8.682;2022-11-15T15:50:41;13.10;99.90
2162;DHT22;1087;50.226;8.682;2022-11-15T15:53:09;13.10;99.90
2162;DHT22;1087;50.226;8.682;2022-11-15T15:55:36;13.10;99.90
2162;DHT22;1087;50.226;8.682;2022-11-15T15:58:01;13.10;99.90
2162;DHT22;1087;50.226;8.682;2022-11-15T16:00:27;13.10;99.90
2162;DHT22;1087;50.226;8.682;2022-11-15T16:02:53;13.10;99.90
2162;DHT22;1087;50.226;8.682;2022-11-15T16:05:19;13.10;99.90
2162;DHT22;1087;50.226;8.682;2022-11-15T16:07:45;13.10;99.90
2162;DHT22;1087;50.226;8.682;2022-11-15T16:10:25;13.20;99.90
2162;DHT22;1087;50.226;8.682;2022-11-15T16:12:51;13.10;99.90
2162;DHT22;1087;50.226;8.682;2022-11-15T16:15:18;13.10;99.90
2162;DHT22;1087;50.226;8.682;2022-11-15T16:17:55;13.10;99.90
2162;DHT22;1087;50.226;8.682;2022-11-15T16:22:58;13.10;99.90
2162;DHT22;1087;50.226;8.682;2022-11-15T16:25:24;13.10;99.90
2162;DHT22;1087;50.226;8.682;2022-11-15T16:27:50;13.10;99.90
2162;DHT22;1087;50.226;8.682;2022-11-15T16:30:22;13.10;99.90
2162;DHT22;1087;50.226;8.682;2022-11-15T16:32:48;13.10;99.90
2162;DHT22;1087;50.226;8.682;2022-11-15T16:35:15;13.10;99.90
2162;DHT22;1087;50.226;8.682;2022-11-15T16:37:41;13.00;99.90
2162;DHT22;1087;50.226;8.682;2022-11-15T16:40:38;13.00;99.90
2162;DHT22;1087;50.226;8.682;2022-11-15T16:43:03;13.00;99.90
2162;DHT22;1087;50.226;8.682;2022-11-15T16:45:33;13.00;99.90
2162;DHT22;1087;50.226;8.682;2022-11-15T16:48:00;13.00;99.90
2162;DHT22;1087;50.226;8.682;2022-11-15T16:50:28;13.00;99.90
2162;DHT22;1087;50.226;8.682;2022-11-15T16:52:55;12.90;99.90
2162;DHT22;1087;50.226;8.682;2022-11-15T16:55:22;13.00;99.90
2162;DHT22;1087;50.226;8.682;2022-11-15T16:57:48;13.00;99.90
2162;DHT22;1087;50.226;8.682;2022-11-15T17:00:15;13.00;99.90
2162;DHT22;1087;50.226;8.682;2022-11-15T17:02:45;13.00;99.90
2162;DHT22;1087;50.226;8.682;2022-11-15T17:05:12;13.00;99.90
2162;DHT22;1087;50.226;8.682;2022-11-15T17:07:38;13.00;99.90
2162;DHT22;1087;50.226;8.682;2022-11-15T17:10:04;13.00;99.90
2162;DHT22;1087;50.226;8.682;2022-11-15T17:12:30;13.00;99.90
2162;DHT22;1087;50.226;8.682;2022-11-15T17:14:56;13.00;99.90
2162;DHT22;1087;50.226;8.682;2022-11-15T17:17:21;13.00;99.90
2162;DHT22;1087;50.226;8.682;2022-11-15T17:19:47;13.00;99.90
2162;DHT22;1087;50.226;8.682;2022-11-15T17:22:13;13.00;99.90
2162;DHT22;1087;50.226;8.682;2022-11-15T17:24:38;13.00;99.90
2162;DHT22;1087;50.226;8.682;2022-11-15T17:27:04;13.00;99.90
2162;DHT22;1087;50.226;8.682;2022-11-15T17:29:29;12.90;99.90
2162;DHT22;1087;50.226;8.682;2022-11-15T17:31:55;12.90;99.90
2162;DHT22;1087;50.226;8.682;2022-11-15T17:34:20;12.90;99.90
2162;DHT22;1087;50.226;8.682;2022-11-15T17:36:47;12.80;99.90
2162;DHT22;1087;50.226;8.682;2022-11-15T17:39:12;12.90;99.90
2162;DHT22;1087;50.226;8.682;2022-11-15T17:41:38;12.90;99.90
2162;DHT22;1087;50.226;8.682;2022-11-15T17:44:03;12.90;99.90
2162;DHT22;1087;50.226;8.682;2022-11-15T17:46:29;12.90;99.90
2162;DHT22;1087;50.226;8.682;2022-11-15T17:48:56;12.80;99.90
2162;DHT22;1087;50.226;8.682;2022-11-15T17:51:22;12.90;99.90
2162;DHT22;1087;50.226;8.682;2022-11-15T17:53:48;12.90;99.90
2162;DHT22;1087;50.226;8.682;2022-11-15T17:56:19;12.80;99.90
2162;DHT22;1087;50.226;8.682;2022-11-15T17:58:53;12.80;99.90
2162;DHT22;1087;50.226;8.682;2022-11-15T18:03:46;12.80;99.90
2162;DHT22;1087;50.226;8.682;2022-11-15T18:06:13;12.80;99.90
2162;DHT22;1087;50.226;8.682;2022-11-15T18:08:41;12.80;99.90
2162;DHT22;1087;50.226;8.682;2022-11-15T18:11:08;12.90;99.90
2162;DHT22;1087;50.226;8.682;2022-11-15T18:13:35;12.80;99.90
2162;DHT22;1087;50.226;8.682;2022-11-15T18:16:02;12.80;99.90
2162;DHT22;1087;50.226;8.682;2022-11-15T18:18:30;12.80;99.90
2162;DHT22;1087;50.226;8.682;2022-11-15T18:21:08;12.80;99.90
2162;DHT22;1087;50.226;8.682;2022-11-15T18:23:34;12.80;99.90
2162;DHT22;1087;50.226;8.682;2022-11-15T18:26:01;12.80;99.90
2162;DHT22;1087;50.226;8.682;2022-11-15T18:28:35;12.80;99.90
2162;DHT22;1087;50.226;8.682;2022-11-15T18:31:02;12.80;99.90
2162;DHT22;1087;50.226;8.682;2022-11-15T18:33:29;12.80;99.90
2162;DHT22;1087;50.226;8.682;2022-11-15T18:36:03;12.80;99.90
2162;DHT22;1087;50.226;8.682;2022-11-15T18:38:29;12.80;99.90
2162;DHT22;1087;50.226;8.682;2022-11-15T18:41:10;12.70;99.90
2162;DHT22;1087;50.226;8.682;2022-11-15T18:43:37;12.70;99.90
2162;DHT22;1087;50.226;8.682;2022-11-15T18:46:07;12.70;99.90
2162;DHT22;1087;50.226;8.682;2022-11-15T18:48:35;12.70;99.90
2162;DHT22;1087;50.226;8.682;2022-11-15T18:51:09;12.80;99.90
2162;DHT22;1087;50.226;8.682;2022-11-15T18:53:35;12.80;99.90
2162;DHT22;1087;50.226;8.682;2022-11-15T18:56:02;12.80;99.90
2162;DHT22;1087;50.226;8.682;2022-11-15T18:58:30;12.70;99.90
2162;DHT22;1087;50.226;8.682;2022-11-15T19:01:03;12.80;99.90